Map

Track Data

SID SEASON NUMBER BASIN SUBBASIN NAME ISO_TIME NATURE LAT LON WMO_WIND WMO_PRES WMO_AGENCY TRACK_TYPE DIST2LAND LANDFALL IFLAG USA_AGENCY USA_ATCF_ID USA_LAT USA_LON USA_RECORD USA_STATUS USA_WIND USA_PRES USA_SSHS USA_R34_NE USA_R34_SE USA_R34_SW USA_R34_NW USA_R50_NE USA_R50_SE USA_R50_SW USA_R50_NW USA_R64_NE USA_R64_SE USA_R64_SW USA_R64_NW USA_POCI USA_ROCI USA_RMW USA_EYE TOKYO_LAT TOKYO_LON TOKYO_GRADE TOKYO_WIND TOKYO_PRES TOKYO_R50_DIR TOKYO_R50_LONG TOKYO_R50_SHORT TOKYO_R30_DIR TOKYO_R30_LONG TOKYO_R30_SHORT TOKYO_LAND CMA_LAT CMA_LON CMA_CAT CMA_WIND CMA_PRES HKO_LAT HKO_LON HKO_CAT HKO_WIND HKO_PRES NEWDELHI_LAT NEWDELHI_LON NEWDELHI_GRADE NEWDELHI_WIND NEWDELHI_PRES NEWDELHI_CI NEWDELHI_DP NEWDELHI_POCI REUNION_LAT REUNION_LON REUNION_TYPE REUNION_WIND REUNION_PRES REUNION_TNUM REUNION_CI REUNION_RMW REUNION_R34_NE REUNION_R34_SE REUNION_R34_SW REUNION_R34_NW REUNION_R50_NE REUNION_R50_SE REUNION_R50_SW REUNION_R50_NW REUNION_R64_NE REUNION_R64_SE REUNION_R64_SW REUNION_R64_NW BOM_LAT BOM_LON BOM_TYPE BOM_WIND BOM_PRES BOM_TNUM BOM_CI BOM_RMW BOM_R34_NE BOM_R34_SE BOM_R34_SW BOM_R34_NW BOM_R50_NE BOM_R50_SE BOM_R50_SW BOM_R50_NW BOM_R64_NE BOM_R64_SE BOM_R64_SW BOM_R64_NW BOM_ROCI BOM_POCI BOM_EYE BOM_POS_METHOD BOM_PRES_METHOD NADI_LAT NADI_LON NADI_CAT NADI_WIND NADI_PRES WELLINGTON_LAT WELLINGTON_LON WELLINGTON_WIND WELLINGTON_PRES DS824_LAT DS824_LON DS824_STAGE DS824_WIND DS824_PRES TD9636_LAT TD9636_LON TD9636_STAGE TD9636_WIND TD9636_PRES TD9635_LAT TD9635_LON TD9635_WIND TD9635_PRES TD9635_ROCI NEUMANN_LAT NEUMANN_LON NEUMANN_CLASS NEUMANN_WIND NEUMANN_PRES MLC_LAT MLC_LON MLC_CLASS MLC_WIND MLC_PRES USA_GUST BOM_GUST BOM_GUST_PER REUNION_GUST REUNION_GUST_PER USA_SEAHGT USA_SEARAD_NE USA_SEARAD_SE USA_SEARAD_SW USA_SEARAD_NW STORM_SPEED STORM_DIR
1956045S14147 1956 18 SP EA NOT_NAMED 1956-02-14 06:00:00 TS -14.2000 146.700 main 175 169 _________O____ -1 -14.2000 146.700 TC 25 1003 19 148
1956045S14147 1956 18 SP EA NOT_NAMED 1956-02-14 09:00:00 TS -14.9932 147.213 main 196 196 _________P____ -1 -14.9932 147.213 TC 13 148
1956045S14147 1956 18 SP EA NOT_NAMED 1956-02-14 11:00:00 TS -15.0813 147.266 main 205 194 _________PO___ -1 -15.5084 147.554 TC -13.8000 146.400 1 0 0
1956045S14147 1956 18 SP EA NOT_NAMED 1956-02-14 12:00:00 TS -15.0109 147.207 main 196 194 O________PP___ jtwc_sh SH211956 -14.3000 146.700 -1 -15.7588 147.724 TC -14.2261 146.681 1 15 149
1956045S14147 1956 18 SP EA NOT_NAMED 1956-02-14 15:00:00 TS -15.9252 147.796 main 237 231 P________PP___ SH211956 -15.7209 147.572 -1 -16.4693 148.225 TC -15.4720 147.521 1 22 147
1956045S14147 1956 18 SP EA NOT_NAMED 1956-02-14 18:00:00 TS -16.8715 148.472 main 261 258 O________PP___ jtwc_sh SH211956 -16.9000 148.400 -1 -17.0976 148.710 TC -16.6026 148.343 1 21 143
1956045S14147 1956 18 SP EA NOT_NAMED 1956-02-14 21:00:00 TS -17.6196 149.142 main 269 261 P________PP___ SH211956 -17.6645 149.139 -1 -17.6167 149.171 TC -17.5326 149.120 1 18 137
1956045S14147 1956 18 SP EA NOT_NAMED 1956-02-14 23:00:00 TS -17.9633 149.558 main 262 258 P________PO___ SH211956 -17.9822 149.586 -1 -17.8890 149.461 TC -18.0000 149.600 1 15 129
1956045S14147 1956 18 SP EA NOT_NAMED 1956-02-15 00:00:00 TS -18.0949 149.757 main 264 256 O________OP___ jtwc_sh SH211956 -18.1000 149.800 -1 -18.0000 149.600 TC 25 1003 -18.1798 149.826 1 13 120
1956045S14147 1956 18 SP EA NOT_NAMED 1956-02-15 03:00:00 TS -18.3783 150.324 main 264 264 P________PP___ SH211956 -18.3747 150.423 -1 -18.2344 149.996 TC 25 1003 -18.5293 150.454 1 11 112
1956045S14147 1956 18 SP EA NOT_NAMED 1956-02-15 06:00:00 TS -18.5075 150.853 main 298 298 O________PP___ jtwc_sh SH211956 -18.5000 151.000 -1 -18.3604 150.388 TC 25 1003 -18.6696 151.022 1 10 102
1956045S14147 1956 18 SP EA NOT_NAMED 1956-02-15 09:00:00 TS -18.5932 151.370 main 332 332 P________PP___ SH211956 -18.6223 151.558 -1 -18.4312 150.811 TC 25 1003 -18.6970 151.554 1 10 99
1956045S14147 1956 18 SP EA NOT_NAMED 1956-02-15 11:00:00 TS -18.6323 151.716 main 358 358 P________PO___ SH211956 -18.6775 151.919 -1 -18.4740 151.127 TC 25 1003 -18.7000 151.900 1 10 97
1956045S14147 1956 18 SP EA NOT_NAMED 1956-02-15 12:00:00 TS -18.6571 151.899 main 370 370 O________OP___ jtwc_sh SH211956 -18.7000 152.100 -1 -18.5000 151.300 TC 25 1003 -18.7286 152.097 1 11 97
1956045S14147 1956 18 SP EA NOT_NAMED 1956-02-15 15:00:00 TS -18.7244 152.492 main 427 427 P________PP___ SH211956 -18.7425 152.665 -1 -18.6245 151.955 TC 25 1002 -18.7884 152.682 1 11 97
1956045S14147 1956 18 SP EA NOT_NAMED 1956-02-15 18:00:00 TS -18.7990 153.076 main 473 473 O________PP___ jtwc_sh SH211956 -18.8000 153.200 -1 -18.7581 152.671 TC 25 1002 -18.8381 153.235 1 11 100
1956045S14147 1956 18 SP EA NOT_NAMED 1956-02-15 21:00:00 TS -18.9168 153.619 main 494 494 P________PP___ SH211956 -18.9199 153.688 -1 -18.9124 153.376 TC 25 1002 -18.9150 153.724 1 10 105
1956045S14147 1956 18 SP EA NOT_NAMED 1956-02-15 23:00:00 TS -19.0249 153.938 main 505 503 P________PO___ SH211956 -19.0333 153.972 -1 -19.0330 153.806 TC 25 1002 -19.0000 154.000 1 9 112
1956045S14147 1956 18 SP EA NOT_NAMED 1956-02-16 00:00:00 TS -19.0908 154.081 main 510 510 O________OP___ jtwc_sh SH211956 -19.1000 154.100 -1 -19.1000 154.000 TC 25 1002 -19.0633 154.125 1 8 121
1956045S14147 1956 18 SP EA NOT_NAMED 1956-02-16 03:00:00 TS -19.3034 154.427 main 517 517 P________PP___ SH211956 -19.3274 154.452 -1 -19.2615 154.364 TC -19.2972 154.438 1 7 130
1956045S14147 1956 18 SP EA NOT_NAMED 1956-02-16 06:00:00 TS -19.5562 154.665 main 518 511 O________PP___ jtwc_sh SH211956 -19.6000 154.700 -1 -19.4447 154.592 TC -19.5800 154.668 1 6 146
1956045S14147 1956 18 SP EA NOT_NAMED 1956-02-16 09:00:00 TS -19.8384 154.806 main 512 499 P________PP___ SH211956 -19.8999 154.838 -1 -19.6641 154.721 TC -19.8897 154.827 1 6 159
1956045S14147 1956 18 SP EA NOT_NAMED 1956-02-16 11:00:00 TS -20.0359 154.859 main 508 502 P________PO___ SH211956 -20.1031 154.883 -1 -19.8376 154.770 TC -20.1000 154.900 1 6 166
1956045S14147 1956 18 SP EA NOT_NAMED 1956-02-16 12:00:00 TS -20.1259 154.878 main 502 484 O________PP___ jtwc_sh SH211956 -20.2000 154.900 -1 -19.9340 154.788 TC -20.1695 154.925 1 5 168
1956045S14147 1956 18 SP EA NOT_NAMED 1956-02-16 15:00:00 TS -20.3777 154.928 main 484 474 P________PP___ SH211956 -20.4350 154.965 -1 -20.2685 154.831 TC -20.3724 154.950 1 6 171
1956045S14147 1956 18 SP EA NOT_NAMED 1956-02-16 18:00:00 TS -20.6749 154.958 main 478 459 O________PP___ jtwc_sh SH211956 -20.7000 155.000 -1 -20.6816 154.889 TC -20.6179 154.942 1 7 177
1956045S14147 1956 18 SP EA NOT_NAMED 1956-02-16 21:00:00 TS -21.0447 154.966 main 459 417 P________PP___ SH211956 -21.0099 154.956 -1 -21.1875 154.999 TC -20.9716 154.955 1 8 175
1956045S14147 1956 18 SP EA NOT_NAMED 1956-02-16 23:00:00 TS -21.3745 155.012 main 417 407 P________PO___ SH211956 -21.3073 154.963 -1 -21.5831 155.120 TC -21.3000 155.000 1 11 169
1956045S14147 1956 18 SP EA NOT_NAMED 1956-02-17 00:00:00 TS -21.5780 155.073 main 402 351 O________OP___ jtwc_sh SH211956 -21.5000 155.000 -1 -21.8000 155.200 TC 35 998 -21.5122 155.094 1 16 158
1956045S14147 1956 18 SP EA NOT_NAMED 1956-02-17 03:00:00 TS -22.3335 155.432 main 351 309 P________PP___ SH211956 -22.2754 155.334 -1 -22.5126 155.617 TC 35 997 -22.2708 155.442 1 18 158
1956045S14147 1956 18 SP EA NOT_NAMED 1956-02-17 06:00:00 TS -23.2134 155.773 main 310 271 O________OP___ jtwc_sh SH211956 -23.2000 155.700 -1 -23.3000 155.900 TC 35 997 -23.1537 155.790 1 18 166
1956045S14147 1956 18 SP EA NOT_NAMED 1956-02-17 09:00:00 TS -24.1079 155.927 main 271 254 P________PP___ SH211956 -24.0995 155.948 -1 -24.1460 155.811 TC 36 996 -24.0866 156.003 1 18 176
1956045S14147 1956 18 SP EA NOT_NAMED 1956-02-17 11:00:00 TS -24.7099 155.880 main 254 241 P________PO___ SH211956 -24.7027 155.964 -1 -24.7343 155.591 TC 37 995 -24.7000 156.000 1 18 188
1956045S14147 1956 18 SP EA NOT_NAMED 1956-02-17 12:00:00 TS -25.0038 155.785 main 241 210 O________PP___ jtwc_sh SH211956 -25.0000 155.900 -1 -25.0299 155.447 TC 37 995 -24.9853 155.893 1 20 206
1956045S14147 1956 18 SP EA NOT_NAMED 1956-02-17 15:00:00 TS -25.8738 155.254 main 214 149 P________PP___ SH211956 -25.8807 155.357 -1 -25.8988 154.933 TC 38 994 -25.8350 155.368 1 20 213
1956045S14147 1956 18 SP EA NOT_NAMED 1956-02-17 18:00:00 TS -26.6891 154.565 main 145 69 O________OP___ jtwc_sh SH211956 -26.7000 154.600 -1 -26.7000 154.400 TC 40 994 -26.6564 154.658 1 20 217
1956045S14147 1956 18 SP EA NOT_NAMED 1956-02-17 21:00:00 TS -27.4240 153.936 main 60 29 P________PP___ SH211956 -27.4377 153.933 -1 -27.3947 153.955 TC -27.4259 153.923 1 18 217
1956045S14147 1956 18 SP EA NOT_NAMED 1956-02-17 23:00:00 TS -27.8686 153.579 main 29 14 P________PO___ SH211956 -27.8861 153.552 -1 -27.8024 153.713 TC -27.9000 153.500 1 16 214
1956045S14147 1956 18 SP EA NOT_NAMED 1956-02-18 00:00:00 TS -28.0779 153.446 main 0 0 O________PP___ jtwc_sh SH211956 -28.1000 153.400 -1 -27.9917 153.606 TC -28.1197 153.377 1 13 203
1956045S14147 1956 18 SP EA NOT_NAMED 1956-02-18 03:00:00 TS -28.6712 153.183 main 0 0 P________PP___ SH211956 -28.7220 153.146 -1 -28.5112 153.336 TC -28.7296 153.104 1 12 199
1956045S14147 1956 18 SP EA NOT_NAMED 1956-02-18 06:00:00 TS -29.2158 153.010 main 0 0 O________PP___ jtwc_sh SH211956 -29.3000 153.000 -1 -28.9727 153.124 TC -29.2904 152.917 1 11 197
1956045S14147 1956 18 SP EA NOT_NAMED 1956-02-18 09:00:00 TS -29.7546 152.805 main 0 0 P________PP___ SH211956 -29.8498 152.779 -1 -29.3959 152.953 TC -29.8332 152.744 1 12 200
1956045S14147 1956 18 SP EA NOT_NAMED 1956-02-18 11:00:00 TS -30.1315 152.637 main 0 0 P________PO___ SH211956 -30.2135 152.603 -1 -29.6663 152.850 TC -30.2000 152.600 2 13 202
1956045S14147 1956 18 SP EA NOT_NAMED 1956-02-18 12:00:00 TS -30.3411 152.532 main 0 0 O________OP___ jtwc_sh SH211956 -30.4000 152.500 -1 -29.8000 152.800 TC 45 991 -30.3880 152.512 2 14 206
1956045S14147 1956 18 SP EA NOT_NAMED 1956-02-18 15:00:00 TS -30.9791 152.156 main 0 0 P_________P___ SH211956 -30.9879 152.129 -1 TC -30.9703 152.183 2 14 208
1956045S14147 1956 18 SP EA NOT_NAMED 1956-02-18 18:00:00 TS -31.5839 151.746 main 0 0 O_________P___ jtwc_sh SH211956 -31.6000 151.700 -1 TC -31.5731 151.777 2 14 210
1956045S14147 1956 18 SP EA NOT_NAMED 1956-02-18 21:00:00 NR -32.1878 151.320 main 0 0 __________P___ SH211956 -1 TC -32.1878 151.320 2 14 212
1956045S14147 1956 18 SP EA NOT_NAMED 1956-02-18 23:00:00 NR -32.6000 151.000 main 0 __________O___ SH211956 -1 TC -32.6000 151.000 1 15 213

Digital Typhoon Data and Search

About IBTrACS Database

This database is a web-friendly format of International Best Track Archive for Climate Stewardship (IBTrACS), a global best track data archive curated by NOAA dating back to 1842.

Updated: 2021-10-08